sensor_id;sensor_type;location;lat;lon;timestamp;temperature;humidity
10143;DHT22;5112;54.088;13.446;2022-07-29T00:02:22;11.90;99.90
10143;DHT22;5112;54.088;13.446;2022-07-29T00:12:24;11.80;99.90
10143;DHT22;5112;54.088;13.446;2022-07-29T00:22:27;11.70;99.90
10143;DHT22;5112;54.088;13.446;2022-07-29T00:32:29;11.70;99.90
10143;DHT22;5112;54.088;13.446;2022-07-29T00:42:41;11.60;99.90
10143;DHT22;5112;54.088;13.446;2022-07-29T00:52:43;11.50;99.90
10143;DHT22;5112;54.088;13.446;2022-07-29T01:02:47;11.30;99.90
10143;DHT22;5112;54.088;13.446;2022-07-29T01:12:51;11.30;99.90
10143;DHT22;5112;54.088;13.446;2022-07-29T01:23:07;11.30;99.90
10143;DHT22;5112;54.088;13.446;2022-07-29T01:33:15;11.10;99.90
10143;DHT22;5112;54.088;13.446;2022-07-29T01:43:36;11.20;99.90
10143;DHT22;5112;54.088;13.446;2022-07-29T01:53:46;11.00;99.90
10143;DHT22;5112;54.088;13.446;2022-07-29T02:03:49;10.80;99.90
10143;DHT22;5112;54.088;13.446;2022-07-29T02:13:54;10.80;99.90
10143;DHT22;5112;54.088;13.446;2022-07-29T02:23:59;10.80;99.90
10143;DHT22;5112;54.088;13.446;2022-07-29T02:34:06;10.80;99.90
10143;DHT22;5112;54.088;13.446;2022-07-29T02:44:10;10.80;99.90
10143;DHT22;5112;54.088;13.446;2022-07-29T02:54:21;10.80;99.90
10143;DHT22;5112;54.088;13.446;2022-07-29T03:04:25;10.60;99.90
10143;DHT22;5112;54.088;13.446;2022-07-29T03:14:30;10.50;99.90
10143;DHT22;5112;54.088;13.446;2022-07-29T03:24:36;10.50;99.90
10143;DHT22;5112;54.088;13.446;2022-07-29T03:34:39;10.60;99.90
10143;DHT22;5112;54.088;13.446;2022-07-29T03:44:42;10.60;99.90
10143;DHT22;5112;54.088;13.446;2022-07-29T03:54:46;10.80;99.90
10143;DHT22;5112;54.088;13.446;2022-07-29T04:04:48;11.00;99.90
10143;DHT22;5112;54.088;13.446;2022-07-29T04:14:51;11.20;99.90
10143;DHT22;5112;54.088;13.446;2022-07-29T04:24:53;11.60;99.90
10143;DHT22;5112;54.088;13.446;2022-07-29T04:34:56;11.90;99.90
10143;DHT22;5112;54.088;13.446;2022-07-29T04:44:58;12.20;99.90
10143;DHT22;5112;54.088;13.446;2022-07-29T04:55:01;12.50;99.90
10143;DHT22;5112;54.088;13.446;2022-07-29T05:05:03;12.90;99.90
10143;DHT22;5112;54.088;13.446;2022-07-29T05:15:07;13.50;99.90
10143;DHT22;5112;54.088;13.446;2022-07-29T05:25:09;14.10;99.90
10143;DHT22;5112;54.088;13.446;2022-07-29T05:35:12;15.00;99.90
10143;DHT22;5112;54.088;13.446;2022-07-29T05:45:14;15.40;99.90
10143;DHT22;5112;54.088;13.446;2022-07-29T05:55:17;15.70;99.90
10143;DHT22;5112;54.088;13.446;2022-07-29T06:05:19;16.00;99.90
10143;DHT22;5112;54.088;13.446;2022-07-29T06:15:22;16.20;99.90
10143;DHT22;5112;54.088;13.446;2022-07-29T06:25:24;16.80;99.90
10143;DHT22;5112;54.088;13.446;2022-07-29T06:35:27;17.40;99.90
10143;DHT22;5112;54.088;13.446;2022-07-29T06:45:29;17.90;99.90
10143;DHT22;5112;54.088;13.446;2022-07-29T06:55:32;18.20;99.90
10143;DHT22;5112;54.088;13.446;2022-07-29T07:05:33;18.30;99.90
10143;DHT22;5112;54.088;13.446;2022-07-29T07:15:36;18.50;99.90
10143;DHT22;5112;54.088;13.446;2022-07-29T07:25:38;18.50;99.90
10143;DHT22;5112;54.088;13.446;2022-07-29T07:35:41;18.90;99.90
10143;DHT22;5112;54.088;13.446;2022-07-29T07:45:44;19.40;99.90
10143;DHT22;5112;54.088;13.446;2022-07-29T07:55:47;20.70;99.90
10143;DHT22;5112;54.088;13.446;2022-07-29T08:05:49;21.20;99.90
10143;DHT22;5112;54.088;13.446;2022-07-29T08:15:53;21.40;99.90
10143;DHT22;5112;54.088;13.446;2022-07-29T08:25:59;21.50;99.90
10143;DHT22;5112;54.088;13.446;2022-07-29T08:36:02;22.20;99.90
10143;DHT22;5112;54.088;13.446;2022-07-29T08:46:05;22.30;99.90
10143;DHT22;5112;54.088;13.446;2022-07-29T08:56:11;22.50;99.90
10143;DHT22;5112;54.088;13.446;2022-07-29T09:06:13;22.80;99.90
10143;DHT22;5112;54.088;13.446;2022-07-29T09:16:17;22.40;99.90
10143;DHT22;5112;54.088;13.446;2022-07-29T09:26:19;22.50;99.90
10143;DHT22;5112;54.088;13.446;2022-07-29T09:36:22;22.80;99.90
10143;DHT22;5112;54.088;13.446;2022-07-29T09:46:25;22.90;99.90
10143;DHT22;5112;54.088;13.446;2022-07-29T09:56:39;22.20;99.90
10143;DHT22;5112;54.088;13.446;2022-07-29T10:06:56;22.10;99.90
10143;DHT22;5112;54.088;13.446;2022-07-29T10:17:01;22.80;99.90
10143;DHT22;5112;54.088;13.446;2022-07-29T10:27:05;23.50;99.90
10143;DHT22;5112;54.088;13.446;2022-07-29T10:37:16;24.20;99.90
10143;DHT22;5112;54.088;13.446;2022-07-29T10:47:22;24.10;99.90
10143;DHT22;5112;54.088;13.446;2022-07-29T10:57:27;23.80;99.90
10143;DHT22;5112;54.088;13.446;2022-07-29T11:07:30;24.40;99.90
10143;DHT22;5112;54.088;13.446;2022-07-29T11:18:06;23.90;99.90
10143;DHT22;5112;54.088;13.446;2022-07-29T11:28:11;23.30;99.90
10143;DHT22;5112;54.088;13.446;2022-07-29T11:38:26;23.40;99.90
10143;DHT22;5112;54.088;13.446;2022-07-29T11:48:29;24.30;99.90
10143;DHT22;5112;54.088;13.446;2022-07-29T11:58:33;24.40;99.90
10143;DHT22;5112;54.088;13.446;2022-07-29T12:08:40;23.50;99.90
10143;DHT22;5112;54.088;13.446;2022-07-29T12:18:54;23.20;99.90
10143;DHT22;5112;54.088;13.446;2022-07-29T12:28:56;23.50;99.90
10143;DHT22;5112;54.088;13.446;2022-07-29T12:38:59;23.90;99.90
10143;DHT22;5112;54.088;13.446;2022-07-29T12:49:01;23.10;99.90
10143;DHT22;5112;54.088;13.446;2022-07-29T12:59:13;22.80;99.90
10143;DHT22;5112;54.088;13.446;2022-07-29T13:09:16;22.90;99.90
10143;DHT22;5112;54.088;13.446;2022-07-29T13:19:20;22.90;99.90
10143;DHT22;5112;54.088;13.446;2022-07-29T13:29:33;22.60;99.90
10143;DHT22;5112;54.088;13.446;2022-07-29T13:39:36;23.00;99.90
10143;DHT22;5112;54.088;13.446;2022-07-29T13:49:38;23.00;99.90
10143;DHT22;5112;54.088;13.446;2022-07-29T13:59:42;23.90;99.90
10143;DHT22;5112;54.088;13.446;2022-07-29T14:09:43;23.90;99.90
10143;DHT22;5112;54.088;13.446;2022-07-29T14:19:46;24.40;99.90
10143;DHT22;5112;54.088;13.446;2022-07-29T14:29:48;24.30;99.90
10143;DHT22;5112;54.088;13.446;2022-07-29T14:39:51;24.10;99.90
10143;DHT22;5112;54.088;13.446;2022-07-29T14:49:54;24.00;99.90
10143;DHT22;5112;54.088;13.446;2022-07-29T14:59:57;23.90;99.90
10143;DHT22;5112;54.088;13.446;2022-07-29T15:09:58;23.40;99.90
10143;DHT22;5112;54.088;13.446;2022-07-29T15:20:02;23.20;99.90
10143;DHT22;5112;54.088;13.446;2022-07-29T15:30:05;23.40;99.90
10143;DHT22;5112;54.088;13.446;2022-07-29T15:40:09;23.20;99.90
10143;DHT22;5112;54.088;13.446;2022-07-29T15:50:11;23.10;99.90
10143;DHT22;5112;54.088;13.446;2022-07-29T16:00:16;23.20;99.90
10143;DHT22;5112;54.088;13.446;2022-07-29T16:10:19;22.70;99.90
10143;DHT22;5112;54.088;13.446;2022-07-29T16:20:22;22.80;99.90
10143;DHT22;5112;54.088;13.446;2022-07-29T16:30:23;23.00;99.90
10143;DHT22;5112;54.088;13.446;2022-07-29T16:40:26;22.60;99.90
10143;DHT22;5112;54.088;13.446;2022-07-29T16:50:28;22.20;99.90
10143;DHT22;5112;54.088;13.446;2022-07-29T17:00:32;22.00;99.90
10143;DHT22;5112;54.088;13.446;2022-07-29T17:10:34;22.00;99.90
10143;DHT22;5112;54.088;13.446;2022-07-29T17:20:39;21.60;99.90
10143;DHT22;5112;54.088;13.446;2022-07-29T17:30:41;21.20;99.90
10143;DHT22;5112;54.088;13.446;2022-07-29T17:40:44;21.00;99.90
10143;DHT22;5112;54.088;13.446;2022-07-29T17:50:46;20.70;99.90
10143;DHT22;5112;54.088;13.446;2022-07-29T18:00:50;20.60;99.90
10143;DHT22;5112;54.088;13.446;2022-07-29T18:10:52;20.70;99.90
10143;DHT22;5112;54.088;13.446;2022-07-29T18:20:55;20.40;99.90
10143;DHT22;5112;54.088;13.446;2022-07-29T18:30:57;20.10;99.90
10143;DHT22;5112;54.088;13.446;2022-07-29T18:41:00;19.80;99.90
10143;DHT22;5112;54.088;13.446;2022-07-29T18:51:02;19.50;99.90
10143;DHT22;5112;54.088;13.446;2022-07-29T19:01:05;19.30;99.90
10143;DHT22;5112;54.088;13.446;2022-07-29T19:11:07;19.10;99.90
10143;DHT22;5112;54.088;13.446;2022-07-29T19:21:10;19.00;99.90
10143;DHT22;5112;54.088;13.446;2022-07-29T19:31:12;18.90;99.90
10143;DHT22;5112;54.088;13.446;2022-07-29T19:41:15;18.80;99.90
10143;DHT22;5112;54.088;13.446;2022-07-29T19:51:17;18.60;99.90
10143;DHT22;5112;54.088;13.446;2022-07-29T20:01:20;18.50;99.90
10143;DHT22;5112;54.088;13.446;2022-07-29T20:11:22;18.50;99.90
10143;DHT22;5112;54.088;13.446;2022-07-29T20:21:25;18.20;99.90
10143;DHT22;5112;54.088;13.446;2022-07-29T20:31:27;18.30;99.90
10143;DHT22;5112;54.088;13.446;2022-07-29T20:41:31;18.00;99.90
10143;DHT22;5112;54.088;13.446;2022-07-29T20:51:33;17.90;99.90
10143;DHT22;5112;54.088;13.446;2022-07-29T21:01:36;17.90;99.90
10143;DHT22;5112;54.088;13.446;2022-07-29T21:11:38;17.90;99.90
10143;DHT22;5112;54.088;13.446;2022-07-29T21:21:41;17.80;99.90
10143;DHT22;5112;54.088;13.446;2022-07-29T21:31:45;17.80;99.90
10143;DHT22;5112;54.088;13.446;2022-07-29T21:41:48;17.60;99.90
10143;DHT22;5112;54.088;13.446;2022-07-29T21:51:50;17.60;99.90
10143;DHT22;5112;54.088;13.446;2022-07-29T22:01:53;17.60;99.90
10143;DHT22;5112;54.088;13.446;2022-07-29T22:11:55;17.70;99.90
10143;DHT22;5112;54.088;13.446;2022-07-29T22:21:58;17.60;99.90
10143;DHT22;5112;54.088;13.446;2022-07-29T22:31:59;17.50;99.90
10143;DHT22;5112;54.088;13.446;2022-07-29T22:42:03;17.40;99.90
10143;DHT22;5112;54.088;13.446;2022-07-29T22:52:05;17.30;99.90
10143;DHT22;5112;54.088;13.446;2022-07-29T23:02:08;17.10;99.90
10143;DHT22;5112;54.088;13.446;2022-07-29T23:12:10;17.00;99.90
10143;DHT22;5112;54.088;13.446;2022-07-29T23:22:13;16.90;99.90
10143;DHT22;5112;54.088;13.446;2022-07-29T23:32:15;16.80;99.90
10143;DHT22;5112;54.088;13.446;2022-07-29T23:42:18;16.70;99.90
10143;DHT22;5112;54.088;13.446;2022-07-29T23:52:19;16.60;99.90
